sensor_id;sensor_type;location;lat;lon;timestamp;pressure;altitude;pressure_sealevel;temperature;humidity
71643;BME280;59438;45.014;39.006;2023-04-08T00:00:34;101250.81;;;10.25;79.74
71643;BME280;59438;45.014;39.006;2023-04-08T00:03:00;101247.38;;;10.23;79.83
71643;BME280;59438;45.014;39.006;2023-04-08T00:05:27;101249.19;;;10.21;80.05
71643;BME280;59438;45.014;39.006;2023-04-08T00:07:53;101249.22;;;10.20;80.29
71643;BME280;59438;45.014;39.006;2023-04-08T00:10:21;101243.09;;;10.19;80.85
71643;BME280;59438;45.014;39.006;2023-04-08T00:12:47;101248.34;;;10.19;80.32
71643;BME280;59438;45.014;39.006;2023-04-08T00:15:14;101239.66;;;10.17;80.42
71643;BME280;59438;45.014;39.006;2023-04-08T00:17:40;101242.28;;;10.17;80.37
71643;BME280;59438;45.014;39.006;2023-04-08T00:20:07;101235.34;;;10.15;79.98
71643;BME280;59438;45.014;39.006;2023-04-08T00:22:34;101238.03;;;10.13;80.27
71643;BME280;59438;45.014;39.006;2023-04-08T00:25:00;101230.19;;;10.12;80.32
71643;BME280;59438;45.014;39.006;2023-04-08T00:27:28;101237.19;;;10.11;80.66
71643;BME280;59438;45.014;39.006;2023-04-08T00:29:54;101231.06;;;10.11;80.53
71643;BME280;59438;45.014;39.006;2023-04-08T00:32:21;101238.91;;;10.12;79.71
71643;BME280;59438;45.014;39.006;2023-04-08T00:34:47;101229.25;;;10.13;80.64
71643;BME280;59438;45.014;39.006;2023-04-08T00:37:14;101228.38;;;10.14;80.69
71643;BME280;59438;45.014;39.006;2023-04-08T00:39:40;101224.91;;;10.13;80.73
71643;BME280;59438;45.014;39.006;2023-04-08T00:42:06;101223.94;;;10.16;80.71
71643;BME280;59438;45.014;39.006;2023-04-08T00:44:34;101222.22;;;10.15;79.98
71643;BME280;59438;45.014;39.006;2023-04-08T00:47:01;101230.97;;;10.15;80.73
71643;BME280;59438;45.014;39.006;2023-04-08T00:49:29;101231.00;;;10.14;80.09
71643;BME280;59438;45.014;39.006;2023-04-08T00:51:57;101227.53;;;10.13;80.26
71643;BME280;59438;45.014;39.006;2023-04-08T00:54:24;101229.25;;;10.13;80.46
71643;BME280;59438;45.014;39.006;2023-04-08T00:56:50;101225.78;;;10.12;80.68
71643;BME280;59438;45.014;39.006;2023-04-08T00:59:17;101237.09;;;10.14;80.96
71643;BME280;59438;45.014;39.006;2023-04-08T01:01:52;101230.09;;;10.15;80.64
71643;BME280;59438;45.014;39.006;2023-04-08T01:04:27;101222.47;;;10.05;80.30
71643;BME280;59438;45.014;39.006;2023-04-08T01:06:58;101227.63;;;10.08;80.44
71643;BME280;59438;45.014;39.006;2023-04-08T01:09:29;101207.09;;;9.90;80.57
71643;BME280;59438;45.014;39.006;2023-04-08T01:11:58;101235.47;;;10.10;80.49
71643;BME280;59438;45.014;39.006;2023-04-08T01:14:30;101224.31;;;10.02;80.29
71643;BME280;59438;45.014;39.006;2023-04-08T01:17:01;101231.19;;;10.06;80.97
71643;BME280;59438;45.014;39.006;2023-04-08T01:19:31;101225.09;;;10.05;80.65
71643;BME280;59438;45.014;39.006;2023-04-08T01:22:03;101232.13;;;10.05;80.86
71643;BME280;59438;45.014;39.006;2023-04-08T01:24:33;101222.53;;;10.02;80.39
71643;BME280;59438;45.014;39.006;2023-04-08T01:27:04;101237.28;;;10.08;81.50
71643;BME280;59438;45.014;39.006;2023-04-08T01:29:31;101223.31;;;10.06;80.76
71643;BME280;59438;45.014;39.006;2023-04-08T01:31:59;101233.81;;;10.06;80.66
71643;BME280;59438;45.014;39.006;2023-04-08T01:34:27;101236.38;;;10.09;81.20
71643;BME280;59438;45.014;39.006;2023-04-08T01:36:54;101241.69;;;10.06;80.72
71643;BME280;59438;45.014;39.006;2023-04-08T01:39:22;101234.78;;;10.03;80.73
71643;BME280;59438;45.014;39.006;2023-04-08T01:41:49;101237.44;;;10.02;80.43
71643;BME280;59438;45.014;39.006;2023-04-08T01:44:20;101233.97;;;10.00;80.32
71643;BME280;59438;45.014;39.006;2023-04-08T01:46:48;101237.53;;;9.99;80.61
71643;BME280;59438;45.014;39.006;2023-04-08T01:49:15;101226.22;;;9.97;80.51
71643;BME280;59438;45.014;39.006;2023-04-08T01:51:43;101225.28;;;9.98;80.54
71643;BME280;59438;45.014;39.006;2023-04-08T01:54:10;101225.25;;;9.99;80.54
71643;BME280;59438;45.014;39.006;2023-04-08T01:56:39;101208.81;;;9.93;80.69
71643;BME280;59438;45.014;39.006;2023-04-08T01:59:09;101198.47;;;9.86;80.43
71643;BME280;59438;45.014;39.006;2023-04-08T02:01:38;101219.09;;;10.00;81.33
71643;BME280;59438;45.014;39.006;2023-04-08T02:04:05;101226.97;;;10.00;80.51
71643;BME280;59438;45.014;39.006;2023-04-08T02:06:31;101227.88;;;9.99;80.29
71643;BME280;59438;45.014;39.006;2023-04-08T02:08:59;101226.94;;;10.02;81.08
71643;BME280;59438;45.014;39.006;2023-04-08T02:11:25;101235.63;;;10.04;80.88
71643;BME280;59438;45.014;39.006;2023-04-08T02:13:52;101235.63;;;10.04;80.33
71643;BME280;59438;45.014;39.006;2023-04-08T02:16:22;101241.78;;;10.03;80.62
71643;BME280;59438;45.014;39.006;2023-04-08T02:18:55;101239.16;;;10.03;81.20
71643;BME280;59438;45.014;39.006;2023-04-08T02:21:27;101242.69;;;10.02;80.58
71643;BME280;59438;45.014;39.006;2023-04-08T02:23:56;101229.72;;;9.96;80.25
71643;BME280;59438;45.014;39.006;2023-04-08T02:26:24;101238.34;;;10.01;80.08
71643;BME280;59438;45.014;39.006;2023-04-08T02:28:52;101248.03;;;9.99;80.70
71643;BME280;59438;45.014;39.006;2023-04-08T02:31:20;101241.06;;;9.96;80.66
71643;BME280;59438;45.014;39.006;2023-04-08T02:33:48;101249.03;;;9.93;80.14
71643;BME280;59438;45.014;39.006;2023-04-08T02:36:17;101249.91;;;9.92;80.50
71643;BME280;59438;45.014;39.006;2023-04-08T02:38:47;101245.59;;;9.91;81.28
71643;BME280;59438;45.014;39.006;2023-04-08T02:41:13;101239.47;;;9.91;80.47
71643;BME280;59438;45.014;39.006;2023-04-08T02:43:40;101235.09;;;9.91;80.41
71643;BME280;59438;45.014;39.006;2023-04-08T02:46:06;101235.94;;;9.92;80.97
71643;BME280;59438;45.014;39.006;2023-04-08T02:48:33;101228.09;;;9.90;80.58
71643;BME280;59438;45.014;39.006;2023-04-08T02:51:00;101226.47;;;9.86;80.44
71643;BME280;59438;45.014;39.006;2023-04-08T02:53:27;101231.66;;;9.89;80.58
71643;BME280;59438;45.014;39.006;2023-04-08T02:55:54;101234.31;;;9.87;80.71
71643;BME280;59438;45.014;39.006;2023-04-08T02:58:20;101233.47;;;9.85;80.47
71643;BME280;59438;45.014;39.006;2023-04-08T03:00:46;101234.44;;;9.83;80.40
71643;BME280;59438;45.014;39.006;2023-04-08T03:03:13;101231.81;;;9.83;80.27
71643;BME280;59438;45.014;39.006;2023-04-08T03:05:39;101227.44;;;9.82;81.24
71643;BME280;59438;45.014;39.006;2023-04-08T03:08:05;101222.25;;;9.80;80.68
71643;BME280;59438;45.014;39.006;2023-04-08T03:10:33;101220.44;;;9.82;81.32
71643;BME280;59438;45.014;39.006;2023-04-08T03:12:59;101224.81;;;9.82;80.74
71643;BME280;59438;45.014;39.006;2023-04-08T03:15:26;101222.19;;;9.82;80.43
71643;BME280;59438;45.014;39.006;2023-04-08T03:17:52;101230.16;;;9.79;80.91
71643;BME280;59438;45.014;39.006;2023-04-08T03:20:18;101229.34;;;9.77;80.70
71643;BME280;59438;45.014;39.006;2023-04-08T03:22:45;101235.47;;;9.76;80.34
71643;BME280;59438;45.014;39.006;2023-04-08T03:25:11;101241.63;;;9.75;80.18
71643;BME280;59438;45.014;39.006;2023-04-08T03:27:39;101238.22;;;9.71;80.42
71643;BME280;59438;45.014;39.006;2023-04-08T03:30:06;101247.00;;;9.70;80.74
71643;BME280;59438;45.014;39.006;2023-04-08T03:32:33;101252.25;;;9.70;81.02
71643;BME280;59438;45.014;39.006;2023-04-08T03:34:59;101240.19;;;9.61;80.43
71643;BME280;59438;45.014;39.006;2023-04-08T03:37:26;101253.13;;;9.69;80.72
71643;BME280;59438;45.014;39.006;2023-04-08T03:39:52;101260.13;;;9.70;81.20
71643;BME280;59438;45.014;39.006;2023-04-08T03:42:19;101259.22;;;9.69;81.08
71643;BME280;59438;45.014;39.006;2023-04-08T03:44:46;101264.44;;;9.71;80.08
71643;BME280;59438;45.014;39.006;2023-04-08T03:47:13;101262.66;;;9.72;80.44
71643;BME280;59438;45.014;39.006;2023-04-08T03:49:39;101279.31;;;9.72;80.36
71643;BME280;59438;45.014;39.006;2023-04-08T03:52:05;101275.84;;;9.70;80.38
71643;BME280;59438;45.014;39.006;2023-04-08T03:54:32;101289.72;;;9.74;80.91
71643;BME280;59438;45.014;39.006;2023-04-08T03:56:58;101282.81;;;9.71;80.55
71643;BME280;59438;45.014;39.006;2023-04-08T03:59:24;101291.38;;;9.78;80.40
71643;BME280;59438;45.014;39.006;2023-04-08T04:01:52;101294.00;;;9.78;81.03
71643;BME280;59438;45.014;39.006;2023-04-08T04:04:19;101292.22;;;9.80;80.23
71643;BME280;59438;45.014;39.006;2023-04-08T04:06:45;101291.28;;;9.82;81.16
71643;BME280;59438;45.014;39.006;2023-04-08T04:09:11;101303.50;;;9.83;81.00
71643;BME280;59438;45.014;39.006;2023-04-08T04:11:38;101302.63;;;9.84;80.58
71643;BME280;59438;45.014;39.006;2023-04-08T04:14:04;101297.31;;;9.86;80.21
71643;BME280;59438;45.014;39.006;2023-04-08T04:16:30;101292.97;;;9.85;80.46
71643;BME280;59438;45.014;39.006;2023-04-08T04:18:58;101295.47;;;9.89;81.05
71643;BME280;59438;45.014;39.006;2023-04-08T04:21:24;101296.34;;;9.90;80.75
71643;BME280;59438;45.014;39.006;2023-04-08T04:23:51;101298.91;;;9.92;80.61
71643;BME280;59438;45.014;39.006;2023-04-08T04:26:17;101291.13;;;9.88;80.47
71643;BME280;59438;45.014;39.006;2023-04-08T04:28:43;101297.97;;;9.94;80.27
71643;BME280;59438;45.014;39.006;2023-04-08T04:31:17;101293.69;;;9.92;80.96
71643;BME280;59438;45.014;39.006;2023-04-08T04:33:44;101311.88;;;9.99;80.04
71643;BME280;59438;45.014;39.006;2023-04-08T04:36:11;101302.16;;;10.03;80.21
71643;BME280;59438;45.014;39.006;2023-04-08T04:38:38;101299.53;;;10.03;80.06
71643;BME280;59438;45.014;39.006;2023-04-08T04:41:04;101308.31;;;10.00;79.83
71643;BME280;59438;45.014;39.006;2023-04-08T04:43:30;101321.50;;;9.99;80.11
71643;BME280;59438;45.014;39.006;2023-04-08T04:45:57;101322.38;;;9.98;80.33
71643;BME280;59438;45.014;39.006;2023-04-08T04:48:23;101320.63;;;9.98;80.53
71643;BME280;59438;45.014;39.006;2023-04-08T04:50:54;101330.25;;;9.98;80.49
71643;BME280;59438;45.014;39.006;2023-04-08T04:53:21;101328.47;;;10.00;80.01
71643;BME280;59438;45.014;39.006;2023-04-08T04:55:48;101331.91;;;10.02;80.77
71643;BME280;59438;45.014;39.006;2023-04-08T04:58:15;101340.59;;;10.05;80.65
71643;BME280;59438;45.014;39.006;2023-04-08T05:00:41;101344.84;;;10.09;79.69
71643;BME280;59438;45.014;39.006;2023-04-08T05:03:08;101339.50;;;10.13;80.11
71643;BME280;59438;45.014;39.006;2023-04-08T05:05:34;101342.03;;;10.17;80.03
71643;BME280;59438;45.014;39.006;2023-04-08T05:08:00;101337.53;;;10.22;80.71
71643;BME280;59438;45.014;39.006;2023-04-08T05:10:28;101336.53;;;10.26;80.06
71643;BME280;59438;45.014;39.006;2023-04-08T05:12:55;101340.00;;;10.28;80.48
71643;BME280;59438;45.014;39.006;2023-04-08T05:15:21;101345.97;;;10.35;79.67
71643;BME280;59438;45.014;39.006;2023-04-08T05:17:47;101339.81;;;10.38;80.46
71643;BME280;59438;45.014;39.006;2023-04-08T05:20:14;101350.06;;;10.47;80.21
71643;BME280;59438;45.014;39.006;2023-04-08T05:22:40;101353.38;;;10.54;79.87
71643;BME280;59438;45.014;39.006;2023-04-08T05:25:07;101354.88;;;10.62;79.74
71643;BME280;59438;45.014;39.006;2023-04-08T05:27:35;101352.91;;;10.71;79.36
71643;BME280;59438;45.014;39.006;2023-04-08T05:30:01;101352.72;;;10.78;79.36
71643;BME280;59438;45.014;39.006;2023-04-08T05:32:29;101359.47;;;10.87;79.56
71643;BME280;59438;45.014;39.006;2023-04-08T05:34:55;101353.31;;;10.88;78.82
71643;BME280;59438;45.014;39.006;2023-04-08T05:37:21;101373.22;;;10.97;79.38
71643;BME280;59438;45.014;39.006;2023-04-08T05:39:48;101374.88;;;11.01;78.60
71643;BME280;59438;45.014;39.006;2023-04-08T05:42:14;101375.69;;;11.03;79.19
71643;BME280;59438;45.014;39.006;2023-04-08T05:44:42;101372.09;;;11.05;79.17
71643;BME280;59438;45.014;39.006;2023-04-08T05:47:08;101373.84;;;11.06;79.27
71643;BME280;59438;45.014;39.006;2023-04-08T05:49:34;101376.44;;;11.08;79.00
71643;BME280;59438;45.014;39.006;2023-04-08T05:52:01;101372.91;;;11.07;78.39
71643;BME280;59438;45.014;39.006;2023-04-08T05:54:27;101381.69;;;11.08;79.06
71643;BME280;59438;45.014;39.006;2023-04-08T05:56:53;101382.59;;;11.07;78.78
71643;BME280;59438;45.014;39.006;2023-04-08T05:59:20;101383.53;;;11.04;78.91
71643;BME280;59438;45.014;39.006;2023-04-08T06:01:48;101387.06;;;11.03;78.74
71643;BME280;59438;45.014;39.006;2023-04-08T06:04:14;101394.91;;;11.05;78.22
71643;BME280;59438;45.014;39.006;2023-04-08T06:06:41;101394.84;;;11.08;78.74
71643;BME280;59438;45.014;39.006;2023-04-08T06:09:07;101396.47;;;11.12;78.64
71643;BME280;59438;45.014;39.006;2023-04-08T06:11:33;101386.84;;;11.11;78.49
71643;BME280;59438;45.014;39.006;2023-04-08T06:14:00;101400.69;;;11.18;78.48
71643;BME280;59438;45.014;39.006;2023-04-08T06:16:26;101396.19;;;11.21;78.44
71643;BME280;59438;45.014;39.006;2023-04-08T06:18:54;101405.75;;;11.24;78.27
71643;BME280;59438;45.014;39.006;2023-04-08T06:21:20;101404.84;;;11.26;78.32
71643;BME280;59438;45.014;39.006;2023-04-08T06:23:47;101410.94;;;11.27;77.59
71643;BME280;59438;45.014;39.006;2023-04-08T06:26:13;101397.84;;;11.25;78.10
71643;BME280;59438;45.014;39.006;2023-04-08T06:28:39;101413.25;;;11.38;77.86
71643;BME280;59438;45.014;39.006;2023-04-08T06:31:06;101417.50;;;11.43;78.13
71643;BME280;59438;45.014;39.006;2023-04-08T06:33:32;101414.66;;;11.51;78.24
71643;BME280;59438;45.014;39.006;2023-04-08T06:36:03;101416.97;;;11.60;77.55
71643;BME280;59438;45.014;39.006;2023-04-08T06:38:30;101423.81;;;11.67;77.47
71643;BME280;59438;45.014;39.006;2023-04-08T06:41:01;101430.63;;;11.73;77.60
71643;BME280;59438;45.014;39.006;2023-04-08T06:43:28;101434.00;;;11.78;77.12
71643;BME280;59438;45.014;39.006;2023-04-08T06:45:54;101423.31;;;11.83;77.39
71643;BME280;59438;45.014;39.006;2023-04-08T06:48:20;101421.38;;;11.89;77.17
71643;BME280;59438;45.014;39.006;2023-04-08T06:50:47;101422.19;;;11.92;77.01
71643;BME280;59438;45.014;39.006;2023-04-08T06:53:14;101431.50;;;12.03;77.11
71643;BME280;59438;45.014;39.006;2023-04-08T06:55:41;101424.41;;;12.05;77.09
71643;BME280;59438;45.014;39.006;2023-04-08T06:58:07;101424.44;;;12.04;77.33
71643;BME280;59438;45.014;39.006;2023-04-08T07:00:34;101430.38;;;12.10;76.24
71643;BME280;59438;45.014;39.006;2023-04-08T07:03:00;101437.25;;;12.15;76.16
71643;BME280;59438;45.014;39.006;2023-04-08T07:05:26;101423.56;;;12.05;76.67
71643;BME280;59438;45.014;39.006;2023-04-08T07:07:53;101436.19;;;12.22;76.65
71643;BME280;59438;45.014;39.006;2023-04-08T07:10:21;101430.75;;;12.26;76.74
71643;BME280;59438;45.014;39.006;2023-04-08T07:12:47;101442.06;;;12.30;76.50
71643;BME280;59438;45.014;39.006;2023-04-08T07:15:14;101442.81;;;12.34;76.27
71643;BME280;59438;45.014;39.006;2023-04-08T07:17:40;101428.72;;;12.35;76.07
71643;BME280;59438;45.014;39.006;2023-04-08T07:20:07;101430.38;;;12.37;75.89
71643;BME280;59438;45.014;39.006;2023-04-08T07:22:34;101428.84;;;12.32;76.13
71643;BME280;59438;45.014;39.006;2023-04-08T07:25:00;101432.97;;;12.39;75.96
71643;BME280;59438;45.014;39.006;2023-04-08T07:27:28;101431.28;;;12.38;75.83
71643;BME280;59438;45.014;39.006;2023-04-08T07:29:54;101430.34;;;12.39;75.70
71643;BME280;59438;45.014;39.006;2023-04-08T07:32:20;101434.75;;;12.38;76.01
71643;BME280;59438;45.014;39.006;2023-04-08T07:34:47;101434.75;;;12.38;75.60
71643;BME280;59438;45.014;39.006;2023-04-08T07:37:13;101431.19;;;12.39;75.82
71643;BME280;59438;45.014;39.006;2023-04-08T07:39:40;101430.34;;;12.39;75.60
71643;BME280;59438;45.014;39.006;2023-04-08T07:42:06;101433.91;;;12.38;75.58
71643;BME280;59438;45.014;39.006;2023-04-08T07:44:34;101437.44;;;12.37;75.69
71643;BME280;59438;45.014;39.006;2023-04-08T07:47:00;101444.50;;;12.36;75.71
71643;BME280;59438;45.014;39.006;2023-04-08T07:49:27;101447.13;;;12.36;75.80
71643;BME280;59438;45.014;39.006;2023-04-08T07:51:53;101438.41;;;12.34;75.53
71643;BME280;59438;45.014;39.006;2023-04-08T07:54:19;101441.13;;;12.31;75.34
71643;BME280;59438;45.014;39.006;2023-04-08T07:56:45;101440.13;;;12.35;75.40
71643;BME280;59438;45.014;39.006;2023-04-08T07:59:12;101459.44;;;12.36;75.37
71643;BME280;59438;45.014;39.006;2023-04-08T08:01:40;101455.06;;;12.35;75.49
71643;BME280;59438;45.014;39.006;2023-04-08T08:04:06;101464.78;;;12.33;75.47
71643;BME280;59438;45.014;39.006;2023-04-08T08:06:32;101460.38;;;12.33;75.59
71643;BME280;59438;45.014;39.006;2023-04-08T08:08:59;101465.59;;;12.35;75.47
71643;BME280;59438;45.014;39.006;2023-04-08T08:11:26;101469.00;;;12.38;75.46
71643;BME280;59438;45.014;39.006;2023-04-08T08:13:52;101476.81;;;12.41;75.47
71643;BME280;59438;45.014;39.006;2023-04-08T08:16:18;101479.31;;;12.46;75.35
71643;BME280;59438;45.014;39.006;2023-04-08T08:18:46;101483.66;;;12.47;75.43
71643;BME280;59438;45.014;39.006;2023-04-08T08:21:12;101488.97;;;12.45;75.30
71643;BME280;59438;45.014;39.006;2023-04-08T08:23:39;101488.13;;;12.45;75.08
71643;BME280;59438;45.014;39.006;2023-04-08T08:26:08;101491.72;;;12.42;75.45
71643;BME280;59438;45.014;39.006;2023-04-08T08:28:35;101487.34;;;12.41;75.46
71643;BME280;59438;45.014;39.006;2023-04-08T08:31:01;101488.31;;;12.39;75.61
71643;BME280;59438;45.014;39.006;2023-04-08T08:33:28;101498.97;;;12.36;75.70
71643;BME280;59438;45.014;39.006;2023-04-08T08:35:56;101497.22;;;12.35;75.48
71643;BME280;59438;45.014;39.006;2023-04-08T08:38:22;101497.25;;;12.33;75.40
71643;BME280;59438;45.014;39.006;2023-04-08T08:40:53;101492.97;;;12.30;75.79
71643;BME280;59438;45.014;39.006;2023-04-08T08:43:19;101503.50;;;12.30;75.71
71643;BME280;59438;45.014;39.006;2023-04-08T08:45:46;101499.03;;;12.33;75.55
71643;BME280;59438;45.014;39.006;2023-04-08T08:48:12;101503.50;;;12.30;75.99
71643;BME280;59438;45.014;39.006;2023-04-08T08:50:38;101503.47;;;12.32;75.40
71643;BME280;59438;45.014;39.006;2023-04-08T08:53:06;101497.41;;;12.28;75.72
71643;BME280;59438;45.014;39.006;2023-04-08T08:55:33;101515.63;;;12.36;75.98
71643;BME280;59438;45.014;39.006;2023-04-08T08:57:59;101513.84;;;12.37;75.99
71643;BME280;59438;45.014;39.006;2023-04-08T09:00:32;101518.09;;;12.41;76.27
71643;BME280;59438;45.014;39.006;2023-04-08T09:03:15;101518.09;;;12.41;76.34
71643;BME280;59438;45.014;39.006;2023-04-08T09:05:53;101500.91;;;12.29;75.87
71643;BME280;59438;45.014;39.006;2023-04-08T09:08:25;101525.03;;;12.43;76.18
71643;BME280;59438;45.014;39.006;2023-04-08T09:10:52;101520.69;;;12.42;75.84
71643;BME280;59438;45.014;39.006;2023-04-08T09:13:18;101531.09;;;12.47;76.05
71643;BME280;59438;45.014;39.006;2023-04-08T09:16:00;101535.34;;;12.51;76.44
71643;BME280;59438;45.014;39.006;2023-04-08T09:18:27;101537.97;;;12.51;75.78
71643;BME280;59438;45.014;39.006;2023-04-08T09:20:54;101529.31;;;12.47;76.08
71643;BME280;59438;45.014;39.006;2023-04-08T09:23:20;101539.72;;;12.52;76.04
71643;BME280;59438;45.014;39.006;2023-04-08T09:25:48;101538.72;;;12.56;76.18
71643;BME280;59438;45.014;39.006;2023-04-08T09:28:20;101542.84;;;12.63;76.08
71643;BME280;59438;45.014;39.006;2023-04-08T09:30:46;101536.56;;;12.67;75.82
71643;BME280;59438;45.014;39.006;2023-04-08T09:33:13;101546.22;;;12.68;75.74
71643;BME280;59438;45.014;39.006;2023-04-08T09:35:39;101542.50;;;12.74;75.97
71643;BME280;59438;45.014;39.006;2023-04-08T09:38:05;101534.75;;;12.69;75.67
71643;BME280;59438;45.014;39.006;2023-04-08T09:40:33;101531.09;;;12.74;75.84
71643;BME280;59438;45.014;39.006;2023-04-08T09:43:04;101545.81;;;12.81;76.05
71643;BME280;59438;45.014;39.006;2023-04-08T09:45:33;101549.41;;;12.78;75.78
71643;BME280;59438;45.014;39.006;2023-04-08T09:48:07;101558.69;;;12.90;76.02
71643;BME280;59438;45.014;39.006;2023-04-08T09:50:40;101565.63;;;12.93;76.29
71643;BME280;59438;45.014;39.006;2023-04-08T09:53:13;101565.53;;;12.96;75.95
71643;BME280;59438;45.014;39.006;2023-04-08T09:55:43;101574.31;;;12.96;75.85
71643;BME280;59438;45.014;39.006;2023-04-08T09:58:20;101575.97;;;12.99;76.66
71643;BME280;59438;45.014;39.006;2023-04-08T10:00:49;101574.22;;;12.99;76.28
71643;BME280;59438;45.014;39.006;2023-04-08T10:03:24;101590.84;;;13.01;76.61
71643;BME280;59438;45.014;39.006;2023-04-08T10:05:52;101593.50;;;13.01;76.16
71643;BME280;59438;45.014;39.006;2023-04-08T10:08:19;101589.94;;;13.02;76.25
71643;BME280;59438;45.014;39.006;2023-04-08T10:10:46;101598.69;;;13.03;76.17
71643;BME280;59438;45.014;39.006;2023-04-08T10:13:12;101604.84;;;13.03;76.30
71643;BME280;59438;45.014;39.006;2023-04-08T10:15:41;101597.03;;;13.00;76.51
71643;BME280;59438;45.014;39.006;2023-04-08T10:18:29;101603.84;;;13.07;77.26
71643;BME280;59438;45.014;39.006;2023-04-08T10:20:56;101617.03;;;13.07;76.54
71643;BME280;59438;45.014;39.006;2023-04-08T10:23:52;101614.31;;;13.09;77.28
71643;BME280;59438;45.014;39.006;2023-04-08T10:26:33;101619.59;;;13.09;77.30
71643;BME280;59438;45.014;39.006;2023-04-08T10:32:26;101600.31;;;13.07;77.85
71643;BME280;59438;45.014;39.006;2023-04-08T10:34:53;101603.72;;;13.10;76.68
71643;BME280;59438;45.014;39.006;2023-04-08T10:37:19;101608.09;;;13.12;76.82
71643;BME280;59438;45.014;39.006;2023-04-08T10:39:48;101608.88;;;13.14;76.90
71643;BME280;59438;45.014;39.006;2023-04-08T10:42:15;101615.78;;;13.18;76.84
71643;BME280;59438;45.014;39.006;2023-04-08T10:44:43;101620.00;;;13.23;77.18
71643;BME280;59438;45.014;39.006;2023-04-08T10:47:10;101620.81;;;13.25;76.60
71643;BME280;59438;45.014;39.006;2023-04-08T10:49:38;101626.91;;;13.27;76.61
71643;BME280;59438;45.014;39.006;2023-04-08T10:52:07;101621.66;;;13.26;76.64
71643;BME280;59438;45.014;39.006;2023-04-08T10:54:33;101627.75;;;13.28;76.76
71643;BME280;59438;45.014;39.006;2023-04-08T10:57:00;101633.00;;;13.29;76.58
71643;BME280;59438;45.014;39.006;2023-04-08T10:59:27;101625.91;;;13.32;76.73
71643;BME280;59438;45.014;39.006;2023-04-08T11:01:53;101618.97;;;13.29;76.46
71643;BME280;59438;45.014;39.006;2023-04-08T11:04:20;101622.28;;;13.34;76.67
71643;BME280;59438;45.014;39.006;2023-04-08T11:06:48;101624.00;;;13.37;76.79
71643;BME280;59438;45.014;39.006;2023-04-08T11:09:15;101619.44;;;13.40;76.46
71643;BME280;59438;45.014;39.006;2023-04-08T11:11:42;101608.81;;;13.43;76.49
71643;BME280;59438;45.014;39.006;2023-04-08T11:14:09;101619.19;;;13.48;76.06
71643;BME280;59438;45.014;39.006;2023-04-08T11:16:36;101613.75;;;13.53;76.41
71643;BME280;59438;45.014;39.006;2023-04-08T11:19:04;101611.78;;;13.59;76.33
71643;BME280;59438;45.014;39.006;2023-04-08T11:21:30;101614.13;;;13.67;76.21
71643;BME280;59438;45.014;39.006;2023-04-08T11:23:58;101616.50;;;13.75;76.29
71643;BME280;59438;45.014;39.006;2023-04-08T11:26:26;101613.59;;;13.82;76.21
71643;BME280;59438;45.014;39.006;2023-04-08T11:28:53;101614.22;;;13.89;75.97
71643;BME280;59438;45.014;39.006;2023-04-08T11:31:21;101613.03;;;13.98;75.74
71643;BME280;59438;45.014;39.006;2023-04-08T11:33:48;101611.88;;;14.05;75.81
71643;BME280;59438;45.014;39.006;2023-04-08T11:36:17;101616.00;;;14.12;75.43
71643;BME280;59438;45.014;39.006;2023-04-08T11:38:44;101613.09;;;14.20;75.41
71643;BME280;59438;45.014;39.006;2023-04-08T11:41:12;101626.94;;;14.26;75.12
71643;BME280;59438;45.014;39.006;2023-04-08T11:43:38;101626.69;;;14.32;74.76
71643;BME280;59438;45.014;39.006;2023-04-08T11:46:08;101614.41;;;14.31;74.78
71643;BME280;59438;45.014;39.006;2023-04-08T11:48:35;101627.41;;;14.38;74.67
71643;BME280;59438;45.014;39.006;2023-04-08T11:51:02;101626.53;;;14.37;74.19
71643;BME280;59438;45.014;39.006;2023-04-08T11:53:28;101627.56;;;14.33;74.17
71643;BME280;59438;45.014;39.006;2023-04-08T11:55:55;101629.41;;;14.31;74.33
71643;BME280;59438;45.014;39.006;2023-04-08T11:58:23;101625.88;;;14.30;74.54
71643;BME280;59438;45.014;39.006;2023-04-08T12:00:49;101619.69;;;14.31;74.48
71643;BME280;59438;45.014;39.006;2023-04-08T12:03:15;101613.47;;;14.32;74.08
71643;BME280;59438;45.014;39.006;2023-04-08T12:05:42;101609.13;;;14.31;73.93
71643;BME280;59438;45.014;39.006;2023-04-08T12:08:08;101617.72;;;14.37;73.90
71643;BME280;59438;45.014;39.006;2023-04-08T12:10:34;101610.69;;;14.37;74.14
71643;BME280;59438;45.014;39.006;2023-04-08T12:13:01;101607.91;;;14.40;73.91
71643;BME280;59438;45.014;39.006;2023-04-08T12:15:29;101607.97;;;14.39;73.47
71643;BME280;59438;45.014;39.006;2023-04-08T12:17:55;101599.06;;;14.41;73.47
71643;BME280;59438;45.014;39.006;2023-04-08T12:20:21;101598.31;;;14.38;73.52
71643;BME280;59438;45.014;39.006;2023-04-08T12:22:48;101591.53;;;14.30;73.85
71643;BME280;59438;45.014;39.006;2023-04-08T12:25:14;101601.88;;;14.37;73.62
71643;BME280;59438;45.014;39.006;2023-04-08T12:27:40;101610.72;;;14.36;73.63
71643;BME280;59438;45.014;39.006;2023-04-08T12:30:08;101602.84;;;14.34;73.59
71643;BME280;59438;45.014;39.006;2023-04-08T12:32:36;101606.50;;;14.31;73.37
71643;BME280;59438;45.014;39.006;2023-04-08T12:35:03;101606.53;;;14.30;73.91
71643;BME280;59438;45.014;39.006;2023-04-08T12:37:29;101607.56;;;14.26;74.04
71643;BME280;59438;45.014;39.006;2023-04-08T12:39:55;101607.63;;;14.24;73.80
71643;BME280;59438;45.014;39.006;2023-04-08T12:42:22;101614.84;;;14.21;73.87
71643;BME280;59438;45.014;39.006;2023-04-08T12:44:48;101602.53;;;14.20;73.83
71643;BME280;59438;45.014;39.006;2023-04-08T12:47:14;101618.44;;;14.18;74.28